createdAt,value
2022-08-07T00:00:18.687Z,46.37
2022-08-07T00:00:51.104Z,46.91
2022-08-07T00:02:35.487Z,46.62
2022-08-07T00:02:36.593Z,46.83
2022-08-07T00:03:05.417Z,46.68
2022-08-07T00:03:39.984Z,46.47
2022-08-07T00:04:18.877Z,46.22
2022-08-07T00:04:56.205Z,46.51
2022-08-07T00:05:27.732Z,46.19
2022-08-07T00:05:59.204Z,46.44
2022-08-07T00:06:33.569Z,46.49
2022-08-07T00:07:05.324Z,46.13
2022-08-07T00:07:41.694Z,46.45
2022-08-07T00:08:14.477Z,46.39
2022-08-07T00:08:46.056Z,46.31
2022-08-07T00:09:21.375Z,46.28
2022-08-07T00:10:17.733Z,46.49
2022-08-07T00:10:48.084Z,46.58
2022-08-07T00:11:29.920Z,46.70
2022-08-07T00:12:04.633Z,46.23
2022-08-07T00:12:36.080Z,46.28
2022-08-07T00:13:27.491Z,46.49
2022-08-07T00:13:58.921Z,46.94
2022-08-07T00:14:31.646Z,46.87
2022-08-07T00:15:03.230Z,46.43
2022-08-07T00:15:35.919Z,46.67
2022-08-07T00:16:10.115Z,46.26
2022-08-07T00:16:48.954Z,46.38
2022-08-07T00:17:21.436Z,46.21
2022-08-07T00:17:52.864Z,46.61
2022-08-07T00:18:25.023Z,46.58
2022-08-07T00:18:56.664Z,46.86
2022-08-07T00:20:00.380Z,46.43
2022-08-07T00:20:30.018Z,46.95
2022-08-07T00:21:07.959Z,46.42
2022-08-07T00:22:02.205Z,46.53
2022-08-07T00:22:35.517Z,46.73
2022-08-07T00:23:07.968Z,46.69
2022-08-07T00:23:40.219Z,46.58
2022-08-07T00:24:11.732Z,46.61
2022-08-07T00:24:43.176Z,46.87
2022-08-07T00:25:16.339Z,46.85
2022-08-07T00:25:59.105Z,46.27
2022-08-07T00:26:58.836Z,46.81
2022-08-07T00:27:24.754Z,46.86
2022-08-07T00:28:07.173Z,46.53
2022-08-07T00:28:46.167Z,46.32
2022-08-07T00:29:31.356Z,46.82
2022-08-07T00:30:03.621Z,46.53
2022-08-07T00:30:35.061Z,46.76
2022-08-07T00:31:12.464Z,46.48
2022-08-07T00:31:49.404Z,46.86
2022-08-07T00:32:28.415Z,46.53
2022-08-07T00:33:00.136Z,46.54
2022-08-07T00:33:32.865Z,46.90
2022-08-07T00:34:04.450Z,46.64
2022-08-07T00:34:40.490Z,46.50
2022-08-07T00:35:11.932Z,46.62
2022-08-07T00:35:49.645Z,46.83
2022-08-07T00:36:21.298Z,46.90
2022-08-07T00:36:52.732Z,46.60
2022-08-07T00:37:24.830Z,46.65
2022-08-07T00:38:00.963Z,46.54
2022-08-07T00:38:33.366Z,46.77
2022-08-07T00:39:04.982Z,46.86
2022-08-07T00:39:36.503Z,46.79
2022-08-07T00:40:16.707Z,46.35
2022-08-07T00:41:14.420Z,46.70
2022-08-07T00:41:53.616Z,46.44
2022-08-07T00:42:33.045Z,46.34
2022-08-07T00:43:09.867Z,46.74
2022-08-07T00:44:00.786Z,46.73
2022-08-07T00:44:33.696Z,46.77
2022-08-07T00:45:06.983Z,46.63
2022-08-07T00:45:38.647Z,46.69
2022-08-07T00:46:10.108Z,46.95
2022-08-07T00:46:42.417Z,46.66
2022-08-07T00:47:15.938Z,46.42
2022-08-07T00:48:09.031Z,46.81
2022-08-07T00:48:42.614Z,46.63
2022-08-07T00:50:16.739Z,46.31
2022-08-07T00:50:19.951Z,46.96
2022-08-07T00:50:57.555Z,47.03
2022-08-07T00:51:56.750Z,46.49
2022-08-07T00:52:20.403Z,46.58
2022-08-07T00:52:51.830Z,46.74
2022-08-07T00:53:24.610Z,46.39
2022-08-07T00:53:56.110Z,46.59
2022-08-07T00:54:27.549Z,46.84
2022-08-07T00:55:04.749Z,46.86
2022-08-07T00:56:00.425Z,46.47
2022-08-07T00:56:33.882Z,46.46
2022-08-07T00:57:05.490Z,46.74
2022-08-07T00:57:37.653Z,46.60
2022-08-07T00:58:15.931Z,46.52
2022-08-07T00:58:49.757Z,46.72
2022-08-07T00:59:35.253Z,46.77
2022-08-07T01:00:07.408Z,46.65
2022-08-07T01:00:39.469Z,46.55
2022-08-07T01:01:25.568Z,46.72
2022-08-07T01:01:57.982Z,46.65
2022-08-07T01:02:29.763Z,46.66
2022-08-07T01:03:01.305Z,46.60
2022-08-07T01:03:55.831Z,46.82
2022-08-07T01:04:24.844Z,46.76
2022-08-07T01:04:58.301Z,46.33
2022-08-07T01:05:30.490Z,46.65
2022-08-07T01:06:08.022Z,47.05
2022-08-07T01:06:39.671Z,46.32
2022-08-07T01:07:11.100Z,46.56
2022-08-07T01:07:42.530Z,46.95
2022-08-07T01:08:13.962Z,46.32
2022-08-07T01:08:53.661Z,46.48
2022-08-07T01:10:04.012Z,46.54
2022-08-07T01:10:18.406Z,46.25
2022-08-07T01:10:56.254Z,46.39
2022-08-07T01:12:10.137Z,46.88
2022-08-07T01:12:28.812Z,46.69
2022-08-07T01:13:02.740Z,46.46
2022-08-07T01:13:35.147Z,46.84
2022-08-07T01:14:06.810Z,46.99
2022-08-07T01:14:39.364Z,46.28
2022-08-07T01:15:17.633Z,46.68
2022-08-07T01:16:05.120Z,46.39
2022-08-07T01:16:37.419Z,46.58
2022-08-07T01:17:08.849Z,46.42
2022-08-07T01:17:40.276Z,46.47
2022-08-07T01:18:17.031Z,46.86
2022-08-07T01:18:49.239Z,46.89
2022-08-07T01:19:22.124Z,46.77
2022-08-07T01:19:54.572Z,46.33
2022-08-07T01:20:30.669Z,46.58
2022-08-07T01:21:02.373Z,46.83
2022-08-07T01:21:33.804Z,47.02
2022-08-07T01:22:08.910Z,46.88
2022-08-07T01:23:00.837Z,46.90
2022-08-07T01:23:41.734Z,46.46
2022-08-07T01:24:21.181Z,46.71
2022-08-07T01:24:52.991Z,46.86
2022-08-07T01:25:53.974Z,46.80
2022-08-07T01:26:16.726Z,46.38
2022-08-07T01:26:52.431Z,47.06
2022-08-07T01:27:25.150Z,47.06
2022-08-07T01:28:03.648Z,47.11
2022-08-07T01:28:35.081Z,46.50
2022-08-07T01:29:06.517Z,46.79
2022-08-07T01:29:38.940Z,46.67
2022-08-07T01:30:10.856Z,46.93
2022-08-07T01:30:42.326Z,46.77
2022-08-07T01:31:15.522Z,46.70
2022-08-07T01:31:49.546Z,47.02
2022-08-07T01:32:22.296Z,46.65
2022-08-07T01:32:54.369Z,46.78
2022-08-07T01:33:53.734Z,47.00
2022-08-07T01:34:17.242Z,46.37
2022-08-07T01:34:49.233Z,46.83
2022-08-07T01:35:20.789Z,46.79
2022-08-07T01:36:05.912Z,46.52
2022-08-07T01:36:40.614Z,46.61
2022-08-07T01:37:12.261Z,46.73
2022-08-07T01:37:44.521Z,47.04
2022-08-07T01:38:25.214Z,46.72
2022-08-07T01:38:57.213Z,46.44
2022-08-07T01:39:40.417Z,46.71
2022-08-07T01:40:17.605Z,46.64
2022-08-07T01:40:49.276Z,46.63
2022-08-07T01:41:26.075Z,46.84
2022-08-07T01:42:07.853Z,46.66
2022-08-07T01:42:58.464Z,46.74
2022-08-07T01:43:38.017Z,46.58
2022-08-07T01:44:10.093Z,46.94
2022-08-07T01:44:41.967Z,46.75
2022-08-07T01:45:18.137Z,46.73
2022-08-07T01:45:50.128Z,46.89
2022-08-07T01:46:26.106Z,46.59
2022-08-07T01:47:01.066Z,47.00
2022-08-07T01:48:21.593Z,47.05
2022-08-07T01:48:37.865Z,47.01
2022-08-07T01:49:12.636Z,46.74
2022-08-07T01:49:46.917Z,46.78
2022-08-07T01:50:29.015Z,46.81
2022-08-07T01:51:08.192Z,46.67
2022-08-07T01:52:04.071Z,47.10
2022-08-07T01:52:36.141Z,46.64
2022-08-07T01:53:08.861Z,46.93
2022-08-07T01:54:09.086Z,46.89
2022-08-07T01:54:32.911Z,46.60
2022-08-07T01:55:08.581Z,46.85
2022-08-07T01:55:54.010Z,47.24
2022-08-07T01:56:25.515Z,46.88
2022-08-07T01:57:00.515Z,46.76
2022-08-07T01:58:06.471Z,46.82
2022-08-07T01:58:28.875Z,47.54
2022-08-07T01:59:01.360Z,47.19
2022-08-07T01:59:32.808Z,47.12
2022-08-07T02:00:04.239Z,46.80
2022-08-07T02:00:48.898Z,46.69
2022-08-07T02:01:25.512Z,46.62
2022-08-07T02:02:12.387Z,47.02
2022-08-07T02:03:12.172Z,46.92
2022-08-07T02:03:51.233Z,46.85
2022-08-07T02:04:22.890Z,46.66
2022-08-07T02:04:58.152Z,46.80
2022-08-07T02:05:42.972Z,46.51
2022-08-07T02:06:30.672Z,47.15
2022-08-07T02:07:03.794Z,46.93
2022-08-07T02:07:36.135Z,47.16
2022-08-07T02:08:23.798Z,46.63
2022-08-07T02:08:56.053Z,46.92
2022-08-07T02:09:51.994Z,46.87
2022-08-07T02:10:19.451Z,46.80
2022-08-07T02:10:55.114Z,46.78
2022-08-07T02:11:30.874Z,46.95
2022-08-07T02:12:18.441Z,47.24
2022-08-07T02:12:50.316Z,46.93
2022-08-07T02:13:21.828Z,46.88
2022-08-07T02:14:14.512Z,47.05
2022-08-07T02:15:06.087Z,46.83
2022-08-07T02:15:38.505Z,46.79
2022-08-07T02:16:11.789Z,46.79
2022-08-07T02:16:43.541Z,46.56
2022-08-07T02:17:24.686Z,46.90
2022-08-07T02:17:56.628Z,46.73
2022-08-07T02:18:28.063Z,46.79
2022-08-07T02:19:01.758Z,46.83
2022-08-07T02:20:07.220Z,46.73
2022-08-07T02:20:28.288Z,47.23
2022-08-07T02:20:59.716Z,47.23
2022-08-07T02:21:56.773Z,46.62
2022-08-07T02:22:29.065Z,47.10
2022-08-07T02:23:01.782Z,47.19
2022-08-07T02:23:35.858Z,46.60
2022-08-07T02:24:07.540Z,46.97
2022-08-07T02:24:40.641Z,46.89
2022-08-07T02:25:18.098Z,46.61
2022-08-07T02:26:31.694Z,46.51
2022-08-07T02:26:41.244Z,46.87
2022-08-07T02:27:14.440Z,46.92
2022-08-07T02:27:51.223Z,47.31
2022-08-07T02:28:27.155Z,46.62
2022-08-07T02:28:58.778Z,46.54
2022-08-07T02:29:31.516Z,47.07
2022-08-07T02:30:03.918Z,47.19
2022-08-07T02:30:38.711Z,46.96
2022-08-07T02:31:28.067Z,47.05
2022-08-07T02:32:00.769Z,47.34
2022-08-07T02:32:32.216Z,46.97
2022-08-07T02:33:09.560Z,47.25
2022-08-07T02:34:02.748Z,46.74
2022-08-07T02:34:33.545Z,46.96
2022-08-07T02:35:06.159Z,47.04
2022-08-07T02:36:30.568Z,46.96
2022-08-07T02:36:32.791Z,47.36
2022-08-07T02:37:08.279Z,46.72
2022-08-07T02:37:43.995Z,47.41
2022-08-07T02:38:15.807Z,46.96
2022-08-07T02:38:50.901Z,47.03
2022-08-07T02:39:43.567Z,46.79
2022-08-07T02:40:30.666Z,46.97
2022-08-07T02:41:04.746Z,46.85
2022-08-07T02:41:37.399Z,46.87
2022-08-07T02:42:10.386Z,47.15
2022-08-07T02:42:46.485Z,47.00
2022-08-07T02:43:19.468Z,47.01
2022-08-07T02:43:52.273Z,46.94
2022-08-07T02:44:27.563Z,47.00
2022-08-07T02:45:07.425Z,47.32
2022-08-07T02:46:01.996Z,46.57
2022-08-07T02:46:34.010Z,46.93
2022-08-07T02:47:08.354Z,47.20
2022-08-07T02:47:51.519Z,47.38
2022-08-07T02:48:23.578Z,46.80
2022-08-07T02:48:55.397Z,46.91
2022-08-07T02:49:29.169Z,47.13
2022-08-07T02:50:18.409Z,46.91
2022-08-07T02:50:49.996Z,46.86
2022-08-07T02:51:41.854Z,46.88
2022-08-07T02:52:13.512Z,47.32
2022-08-07T02:52:48.636Z,46.53
2022-08-07T02:53:20.446Z,46.53
2022-08-07T02:53:51.872Z,47.06
2022-08-07T02:54:25.256Z,46.72
2022-08-07T02:54:56.805Z,47.37
2022-08-07T02:56:03.537Z,47.18
2022-08-07T02:56:21.681Z,47.21
2022-08-07T02:56:53.367Z,46.90
2022-08-07T02:57:24.881Z,47.25
2022-08-07T02:58:02.477Z,46.94
2022-08-07T02:58:35.320Z,47.00
2022-08-07T02:59:07.446Z,47.37
2022-08-07T02:59:38.873Z,47.30
2022-08-07T03:00:12.047Z,47.00
2022-08-07T03:00:47.119Z,46.86
2022-08-07T03:01:36.346Z,46.94
2022-08-07T03:02:10.380Z,47.29
2022-08-07T03:02:55.093Z,46.78
2022-08-07T03:03:29.526Z,47.16
2022-08-07T03:04:18.460Z,47.13
2022-08-07T03:04:50.408Z,46.87
2022-08-07T03:05:23.240Z,47.00
2022-08-07T03:05:56.089Z,47.14
2022-08-07T03:06:33.017Z,47.46
2022-08-07T03:07:10.509Z,46.98
2022-08-07T03:08:04.635Z,46.59
2022-08-07T03:08:33.745Z,47.23
2022-08-07T03:09:06.146Z,47.18
2022-08-07T03:09:41.821Z,47.41
2022-08-07T03:10:16.200Z,47.00
2022-08-07T03:10:49.121Z,47.24
2022-08-07T03:11:20.554Z,47.39
2022-08-07T03:11:57.871Z,47.44
2022-08-07T03:12:34.106Z,47.11
2022-08-07T03:13:06.322Z,47.44
2022-08-07T03:13:49.879Z,47.03
2022-08-07T03:14:22.465Z,47.35
2022-08-07T03:14:54.141Z,47.16
2022-08-07T03:15:30.323Z,46.96
2022-08-07T03:16:17.051Z,47.04
2022-08-07T03:16:49.626Z,46.93
2022-08-07T03:17:22.260Z,46.95
2022-08-07T03:17:54.629Z,46.94
2022-08-07T03:18:34.257Z,46.95
2022-08-07T03:19:06.671Z,47.14
2022-08-07T03:19:39.719Z,47.28
2022-08-07T03:20:12.485Z,47.04
2022-08-07T03:20:44.224Z,47.40
2022-08-07T03:21:18.857Z,47.17
2022-08-07T03:21:51.105Z,47.40
2022-08-07T03:22:22.681Z,47.11
2022-08-07T03:22:55.629Z,47.08
2022-08-07T03:23:33.552Z,47.28
2022-08-07T03:24:19.342Z,47.14
2022-08-07T03:24:57.195Z,47.06
2022-08-07T03:25:40.151Z,47.41
2022-08-07T03:26:21.083Z,47.11
2022-08-07T03:26:58.271Z,47.22
2022-08-07T03:28:09.042Z,47.12
2022-08-07T03:28:37.493Z,47.21
2022-08-07T03:29:11.215Z,47.24
2022-08-07T03:29:49.579Z,47.04
2022-08-07T03:30:24.438Z,47.46
2022-08-07T03:30:55.935Z,47.32
2022-08-07T03:31:42.896Z,47.10
2022-08-07T03:32:15.254Z,46.98
2022-08-07T03:32:58.901Z,47.34
2022-08-07T03:33:40.114Z,47.66
2022-08-07T03:34:18.770Z,47.29
2022-08-07T03:35:00.956Z,47.34
2022-08-07T03:35:50.506Z,47.19
2022-08-07T03:36:22.223Z,47.45
2022-08-07T03:36:58.052Z,47.55
2022-08-07T03:37:32.826Z,47.26
2022-08-07T03:38:08.729Z,47.35
2022-08-07T03:38:44.996Z,47.26
2022-08-07T03:39:59.655Z,47.04
2022-08-07T03:40:15.805Z,47.22
2022-08-07T03:40:48.246Z,47.59
2022-08-07T03:41:42.261Z,46.95
2022-08-07T03:42:19.007Z,47.17
2022-08-07T03:42:51.508Z,46.99
2022-08-07T03:43:22.954Z,47.35
2022-08-07T03:43:58.138Z,47.28
2022-08-07T03:44:32.021Z,47.46
2022-08-07T03:45:06.012Z,47.41
2022-08-07T03:45:43.544Z,46.94
2022-08-07T03:46:18.921Z,47.06
2022-08-07T03:47:10.771Z,47.31
2022-08-07T03:47:48.038Z,47.36
2022-08-07T03:48:22.962Z,47.46
2022-08-07T03:49:02.855Z,47.56
2022-08-07T03:49:34.864Z,47.09
2022-08-07T03:50:07.074Z,47.31
2022-08-07T03:50:43.211Z,47.09
2022-08-07T03:51:30.679Z,47.06
2022-08-07T03:52:02.513Z,47.10
2022-08-07T03:52:33.947Z,47.29
2022-08-07T03:53:05.380Z,47.60
2022-08-07T03:54:05.551Z,47.40
2022-08-07T03:54:35.159Z,47.27
2022-08-07T03:55:13.618Z,47.52
2022-08-07T03:55:57.526Z,47.46
2022-08-07T03:56:35.638Z,47.10
2022-08-07T03:57:07.493Z,47.29
2022-08-07T03:58:32.891Z,47.61
2022-08-07T03:59:06.689Z,47.33
2022-08-07T03:59:21.893Z,47.33
2022-08-07T04:00:01.637Z,47.14
2022-08-07T04:00:36.532Z,47.36
2022-08-07T04:01:11.175Z,47.31
2022-08-07T04:01:43.278Z,47.33
2022-08-07T04:02:17.031Z,47.40
2022-08-07T04:02:49.455Z,47.41
2022-08-07T04:03:21.082Z,47.50
2022-08-07T04:03:55.106Z,47.35
2022-08-07T04:04:27.034Z,47.54
2022-08-07T04:04:58.473Z,47.03
2022-08-07T04:05:39.572Z,47.34
2022-08-07T04:06:37.442Z,47.26
2022-08-07T04:07:03.597Z,47.52
2022-08-07T04:07:48.543Z,47.04
2022-08-07T04:08:21.197Z,47.53
2022-08-07T04:08:52.916Z,47.20
2022-08-07T04:09:24.397Z,47.33
2022-08-07T04:09:55.840Z,47.25
2022-08-07T04:10:27.267Z,47.71
2022-08-07T04:12:24.393Z,47.01
2022-08-07T04:12:25.607Z,47.41
2022-08-07T04:12:43.899Z,47.36
2022-08-07T04:13:15.705Z,47.76
2022-08-07T04:14:09.180Z,46.91
2022-08-07T04:14:45.945Z,47.40
2022-08-07T04:15:19.314Z,47.13
2022-08-07T04:15:52.701Z,47.71
2022-08-07T04:16:31.422Z,47.54
2022-08-07T04:17:03.954Z,47.71
2022-08-07T04:18:31.917Z,47.42
2022-08-07T04:18:56.412Z,47.58
2022-08-07T04:19:18.431Z,47.14
2022-08-07T04:19:54.136Z,47.15
2022-08-07T04:20:26.399Z,47.63
2022-08-07T04:20:57.955Z,47.24
2022-08-07T04:21:31.817Z,47.63
2022-08-07T04:22:08.769Z,47.58
2022-08-07T04:22:53.453Z,47.14
2022-08-07T04:23:25.313Z,47.15
2022-08-07T04:24:30.715Z,47.08
2022-08-07T04:25:08.900Z,47.87
2022-08-07T04:25:44.021Z,47.53
2022-08-07T04:26:16.766Z,47.78
2022-08-07T04:26:48.438Z,47.75
2022-08-07T04:27:25.639Z,47.36
2022-08-07T04:27:59.478Z,47.22
2022-08-07T04:28:32.233Z,47.11
2022-08-07T04:29:03.683Z,47.48
2022-08-07T04:29:48.956Z,47.50
2022-08-07T04:30:39.347Z,47.42
2022-08-07T04:31:20.121Z,47.75
2022-08-07T04:32:03.353Z,47.61
2022-08-07T04:32:44.951Z,47.72
2022-08-07T04:33:19.521Z,47.49
2022-08-07T04:33:55.100Z,47.16
2022-08-07T04:34:33.286Z,47.49
2022-08-07T04:35:05.718Z,47.67
2022-08-07T04:35:37.647Z,47.28
2022-08-07T04:36:09.131Z,47.77
2022-08-07T04:36:40.613Z,47.33
2022-08-07T04:37:20.243Z,47.53
2022-08-07T04:38:01.045Z,47.47
2022-08-07T04:38:36.053Z,47.63
2022-08-07T04:39:07.531Z,47.24
2022-08-07T04:39:47.875Z,47.35
2022-08-07T04:40:21.244Z,47.16
2022-08-07T04:40:56.726Z,47.35
2022-08-07T04:41:28.396Z,47.50
2022-08-07T04:42:00.026Z,47.67
2022-08-07T04:42:31.477Z,47.59
2022-08-07T04:43:03.503Z,47.68
2022-08-07T04:44:12.905Z,47.13
2022-08-07T04:44:26.584Z,47.81
2022-08-07T04:45:02.941Z,47.62
2022-08-07T04:45:57.591Z,47.33
2022-08-07T04:46:34.791Z,47.31
2022-08-07T04:47:08.818Z,47.46
2022-08-07T04:48:02.040Z,47.66
2022-08-07T04:48:31.962Z,47.77
2022-08-07T04:49:17.564Z,47.61
2022-08-07T04:49:57.877Z,47.19
2022-08-07T04:50:34.872Z,47.46
2022-08-07T04:51:09.332Z,47.55
2022-08-07T04:51:40.888Z,47.54
2022-08-07T04:52:14.130Z,47.61
2022-08-07T04:52:51.147Z,47.20
2022-08-07T04:53:40.022Z,47.84
2022-08-07T04:54:15.543Z,48.07
2022-08-07T04:54:50.727Z,47.19
2022-08-07T04:58:11.901Z,47.76
2022-08-07T04:58:13.687Z,47.69
2022-08-07T04:58:16.378Z,48.03
2022-08-07T04:58:24.123Z,47.96
2022-08-07T04:59:17.251Z,48.11
2022-08-07T05:00:11.889Z,47.47
2022-08-07T05:00:32.417Z,47.86
2022-08-07T05:01:04.131Z,47.85
2022-08-07T05:01:44.915Z,48.02
2022-08-07T05:02:20.616Z,47.72
2022-08-07T05:02:53.511Z,47.64
2022-08-07T05:04:06.910Z,47.80
2022-08-07T05:04:17.767Z,47.73
2022-08-07T05:04:50.270Z,48.01
2022-08-07T05:05:53.154Z,47.76
2022-08-07T05:06:19.348Z,48.02
2022-08-07T05:06:53.346Z,47.54
2022-08-07T05:07:30.552Z,47.75
2022-08-07T05:08:08.426Z,47.79
2022-08-07T05:09:00.024Z,48.13
2022-08-07T05:09:45.709Z,48.05
2022-08-07T05:10:18.241Z,47.37
2022-08-07T05:10:50.325Z,47.99
2022-08-07T05:11:57.976Z,47.86
2022-08-07T05:12:26.802Z,47.75
2022-08-07T05:13:09.912Z,47.85
2022-08-07T05:14:52.322Z,48.18
2022-08-07T05:14:54.507Z,47.59
2022-08-07T05:15:28.708Z,47.54
2022-08-07T05:16:00.463Z,47.62
2022-08-07T05:16:36.257Z,47.38
2022-08-07T05:17:50.218Z,47.91
2022-08-07T05:18:09.371Z,47.82
2022-08-07T05:18:41.889Z,48.31
2022-08-07T05:19:13.821Z,48.25
2022-08-07T05:19:46.232Z,47.74
2022-08-07T05:20:17.716Z,47.65
2022-08-07T05:20:49.396Z,47.86
2022-08-07T05:21:59.275Z,47.70
2022-08-07T05:22:13.179Z,47.77
2022-08-07T05:22:58.290Z,47.66
2022-08-07T05:23:29.984Z,48.18
2022-08-07T05:24:01.719Z,47.69
2022-08-07T05:24:40.454Z,47.71
2022-08-07T05:25:25.557Z,48.30
2022-08-07T05:26:15.444Z,47.57
2022-08-07T05:26:50.423Z,48.24
2022-08-07T05:28:03.182Z,47.93
2022-08-07T05:28:20.728Z,47.57
2022-08-07T05:28:54.276Z,47.65
2022-08-07T05:29:27.166Z,48.11
2022-08-07T05:30:10.579Z,47.83
2022-08-07T05:30:42.088Z,47.87
2022-08-07T05:31:14.578Z,48.25
2022-08-07T05:31:52.852Z,47.98
2022-08-07T05:32:24.550Z,47.92
2022-08-07T05:32:55.978Z,48.27
2022-08-07T05:33:29.149Z,48.06
2022-08-07T05:34:01.398Z,48.25
2022-08-07T05:34:37.169Z,47.59
2022-08-07T05:35:08.669Z,47.95
2022-08-07T05:35:42.203Z,48.05
2022-08-07T05:36:22.321Z,47.90
2022-08-07T05:36:54.265Z,47.49
2022-08-07T05:37:25.928Z,47.69
2022-08-07T05:38:08.854Z,48.05
2022-08-07T05:39:00.057Z,48.00
2022-08-07T05:40:13.864Z,48.18
2022-08-07T05:40:24.120Z,48.25
2022-08-07T05:41:00.239Z,47.89
2022-08-07T05:42:00.418Z,47.91
2022-08-07T05:42:33.234Z,47.92
2022-08-07T05:43:06.212Z,48.25
2022-08-07T05:43:49.668Z,47.45
2022-08-07T05:44:33.600Z,47.91
2022-08-07T05:45:25.783Z,47.92
2022-08-07T05:45:57.007Z,47.84
2022-08-07T05:46:29.411Z,48.13
2022-08-07T05:47:01.263Z,47.59
2022-08-07T05:47:38.320Z,47.85
2022-08-07T05:48:26.525Z,47.85
2022-08-07T05:48:59.371Z,47.94
2022-08-07T05:49:41.040Z,47.88
2022-08-07T05:50:13.337Z,48.11
2022-08-07T05:50:44.772Z,47.63
2022-08-07T05:51:16.221Z,47.98
2022-08-07T05:51:47.660Z,48.05
2022-08-07T05:52:20.064Z,48.28
2022-08-07T05:52:51.946Z,48.12
2022-08-07T05:54:12.001Z,47.69
2022-08-07T05:54:30.540Z,47.70
2022-08-07T05:55:10.257Z,47.98
2022-08-07T05:56:02.129Z,48.33
2022-08-07T05:56:33.864Z,48.45
2022-08-07T05:57:06.655Z,48.42
2022-08-07T05:57:42.358Z,48.52
2022-08-07T05:58:14.041Z,47.94
2022-08-07T05:58:52.442Z,48.42
2022-08-07T05:59:24.477Z,47.98
2022-08-07T05:59:58.209Z,47.87
2022-08-07T06:00:29.790Z,47.87
2022-08-07T06:01:05.114Z,48.13
2022-08-07T06:01:37.495Z,48.28
2022-08-07T06:02:09.384Z,48.03
2022-08-07T06:02:41.011Z,48.02
2022-08-07T06:03:13.196Z,47.96
2022-08-07T06:03:57.042Z,47.70
2022-08-07T06:04:30.503Z,47.85
2022-08-07T06:05:03.601Z,47.95
2022-08-07T06:05:35.265Z,48.16
2022-08-07T06:06:06.692Z,48.50
2022-08-07T06:06:46.198Z,48.52
2022-08-07T06:07:22.976Z,48.03
2022-08-07T06:08:29.529Z,48.28
2022-08-07T06:09:04.767Z,48.50
2022-08-07T06:10:04.209Z,48.29
2022-08-07T06:10:28.071Z,48.08
2022-08-07T06:10:59.554Z,48.22
2022-08-07T06:11:35.277Z,48.21
2022-08-07T06:12:06.710Z,47.89
2022-08-07T06:12:38.724Z,48.32
2022-08-07T06:13:13.311Z,48.08
2022-08-07T06:14:11.547Z,48.18
2022-08-07T06:14:38.332Z,48.16
2022-08-07T06:15:09.824Z,48.16
2022-08-07T06:15:49.802Z,47.96
2022-08-07T06:16:21.425Z,48.17
2022-08-07T06:16:55.695Z,48.22
2022-08-07T06:17:32.003Z,47.79
2022-08-07T06:18:09.057Z,48.32
2022-08-07T06:18:51.766Z,48.49
2022-08-07T06:19:52.026Z,47.97
2022-08-07T06:20:25.453Z,48.21
2022-08-07T06:22:14.498Z,48.22
2022-08-07T06:22:16.360Z,48.02
2022-08-07T06:23:02.237Z,47.94
2022-08-07T06:24:36.992Z,48.23
2022-08-07T06:24:38.479Z,47.98
2022-08-07T06:25:17.580Z,48.02
2022-08-07T06:25:54.379Z,48.24
2022-08-07T06:26:28.308Z,48.16
2022-08-07T06:26:59.734Z,48.46
2022-08-07T06:27:44.427Z,47.86
2022-08-07T06:28:27.787Z,48.39
2022-08-07T06:28:59.991Z,47.92
2022-08-07T06:29:33.005Z,48.32
2022-08-07T06:30:04.797Z,48.36
2022-08-07T06:30:37.419Z,48.19
2022-08-07T06:31:12.952Z,47.86
2022-08-07T06:31:50.001Z,48.56
2022-08-07T06:32:22.079Z,48.39
2022-08-07T06:33:00.998Z,47.98
2022-08-07T06:33:33.050Z,48.29
2022-08-07T06:34:04.725Z,48.27
2022-08-07T06:34:36.166Z,48.18
2022-08-07T06:35:17.998Z,48.26
2022-08-07T06:36:06.630Z,48.32
2022-08-07T06:36:41.019Z,48.46
2022-08-07T06:37:12.444Z,48.05
2022-08-07T06:37:48.788Z,48.05
2022-08-07T06:38:24.452Z,47.85
2022-08-07T06:40:13.249Z,47.98
2022-08-07T06:40:18.023Z,48.42
2022-08-07T06:40:45.927Z,48.00
2022-08-07T06:41:17.647Z,48.57
2022-08-07T06:42:09.151Z,48.67
2022-08-07T06:42:41.205Z,48.28
2022-08-07T06:43:21.406Z,48.38
2022-08-07T06:43:59.504Z,48.16
2022-08-07T06:44:39.752Z,48.21
2022-08-07T06:45:11.484Z,48.26
2022-08-07T06:45:44.286Z,48.57
2022-08-07T06:46:20.388Z,48.41
2022-08-07T06:47:10.506Z,48.74
2022-08-07T06:47:57.486Z,48.29
2022-08-07T06:48:30.281Z,48.44
2022-08-07T06:49:04.435Z,48.05
2022-08-07T06:49:36.157Z,48.12
2022-08-07T06:50:23.987Z,48.08
2022-08-07T06:50:56.009Z,48.40
2022-08-07T06:51:33.527Z,48.30
2022-08-07T06:52:07.615Z,48.04
2022-08-07T06:52:41.813Z,48.33
2022-08-07T06:53:49.353Z,48.42
2022-08-07T06:55:29.104Z,48.10
2022-08-07T06:55:32.524Z,48.01
2022-08-07T06:56:01.233Z,48.16
2022-08-07T06:56:33.746Z,48.70
2022-08-07T06:57:05.237Z,48.32
2022-08-07T06:57:39.851Z,48.43
2022-08-07T06:58:21.320Z,48.53
2022-08-07T07:00:11.708Z,48.25
2022-08-07T07:00:12.603Z,47.93
2022-08-07T07:00:36.105Z,48.41
2022-08-07T07:01:07.629Z,48.35
2022-08-07T07:01:43.909Z,48.44
2022-08-07T07:02:49.081Z,48.14
2022-08-07T07:03:13.966Z,48.39
2022-08-07T07:03:57.144Z,47.92
2022-08-07T07:04:34.447Z,47.97
2022-08-07T07:05:05.938Z,48.01
2022-08-07T07:06:03.765Z,48.10
2022-08-07T07:06:29.053Z,47.92
2022-08-07T07:07:01.814Z,48.25
2022-08-07T07:07:59.691Z,48.17
2022-08-07T07:08:26.503Z,48.76
2022-08-07T07:08:58.305Z,48.10
2022-08-07T07:09:31.329Z,48.39
2022-08-07T07:10:03.035Z,48.42
2022-08-07T07:10:34.462Z,48.71
2022-08-07T07:11:13.949Z,48.20
2022-08-07T07:12:10.666Z,48.36
2022-08-07T07:12:50.429Z,48.72
2022-08-07T07:13:56.612Z,48.13
2022-08-07T07:14:16.445Z,48.46
2022-08-07T07:14:49.177Z,48.08
2022-08-07T07:15:24.182Z,48.09
2022-08-07T07:16:04.165Z,48.55
2022-08-07T07:16:45.022Z,48.54
2022-08-07T07:17:21.557Z,48.28
2022-08-07T07:18:00.338Z,48.32
2022-08-07T07:18:47.779Z,48.61
2022-08-07T07:19:55.776Z,48.30
2022-08-07T07:20:11.441Z,48.29
2022-08-07T07:20:43.440Z,48.04
2022-08-07T07:21:19.842Z,48.33
2022-08-07T07:22:04.865Z,48.39
2022-08-07T07:24:05.554Z,48.38
2022-08-07T07:24:05.599Z,48.50
2022-08-07T07:24:25.688Z,48.31
2022-08-07T07:25:14.478Z,47.93
2022-08-07T07:26:34.472Z,48.33
2022-08-07T07:26:40.601Z,48.65
2022-08-07T07:27:12.106Z,48.68
2022-08-07T07:27:55.675Z,48.51
2022-08-07T07:28:48.329Z,48.53
2022-08-07T07:29:57.196Z,48.31
2022-08-07T07:30:26.542Z,47.84
2022-08-07T07:31:07.884Z,48.27
2022-08-07T07:31:44.519Z,48.14
2022-08-07T07:32:18.000Z,48.22
2022-08-07T07:32:49.428Z,48.34
2022-08-07T07:33:21.677Z,48.20
2022-08-07T07:33:57.085Z,48.23
2022-08-07T07:34:30.737Z,47.83
2022-08-07T07:35:04.052Z,48.48
2022-08-07T07:35:54.151Z,47.98
2022-08-07T07:36:32.165Z,48.29
2022-08-07T07:37:14.585Z,48.31
2022-08-07T07:38:02.735Z,48.19
2022-08-07T07:38:37.264Z,47.97
2022-08-07T07:39:11.021Z,48.28
2022-08-07T07:39:52.069Z,47.94
2022-08-07T07:40:26.601Z,48.30
2022-08-07T07:41:01.925Z,47.89
2022-08-07T07:42:01.885Z,47.82
2022-08-07T07:42:25.828Z,48.26
2022-08-07T07:43:15.267Z,48.20
2022-08-07T07:44:16.788Z,48.20
2022-08-07T07:44:41.702Z,48.23
2022-08-07T07:45:13.132Z,48.19
2022-08-07T07:46:36.834Z,48.00
2022-08-07T07:46:54.502Z,48.27
2022-08-07T07:47:28.925Z,47.82
2022-08-07T07:48:00.620Z,48.34
2022-08-07T07:48:35.798Z,48.11
2022-08-07T07:50:15.894Z,48.14
2022-08-07T07:50:32.962Z,48.09
2022-08-07T07:50:50.631Z,48.16
2022-08-07T07:51:22.067Z,48.55
2022-08-07T07:51:58.152Z,48.23
2022-08-07T07:52:31.305Z,48.01
2022-08-07T07:53:03.176Z,48.04
2022-08-07T07:53:35.197Z,47.95
2022-08-07T07:54:06.643Z,47.72
2022-08-07T07:54:44.310Z,48.02
2022-08-07T07:55:22.964Z,48.10
2022-08-07T07:56:00.434Z,48.13
2022-08-07T07:56:32.167Z,48.06
2022-08-07T07:57:05.004Z,47.83
2022-08-07T07:57:51.574Z,47.99
2022-08-07T07:58:25.099Z,48.39
2022-08-07T07:58:59.384Z,48.46
2022-08-07T07:59:52.412Z,47.95
2022-08-07T08:00:29.455Z,47.79
2022-08-07T08:01:01.482Z,48.29
2022-08-07T08:02:02.128Z,48.48
2022-08-07T08:02:36.096Z,48.00
2022-08-07T08:03:08.246Z,48.44
2022-08-07T08:04:10.435Z,48.39
2022-08-07T08:04:31.641Z,48.54
2022-08-07T08:05:03.406Z,48.30
2022-08-07T08:05:54.527Z,48.18
2022-08-07T08:06:26.257Z,48.15
2022-08-07T08:07:00.751Z,48.41
2022-08-07T08:07:36.002Z,48.07
2022-08-07T08:08:34.624Z,48.02
2022-08-07T08:09:05.507Z,48.32